Time;durP1;ratioP1;P1;durP2;ratioP2;P2;SDS_P1;SDS_P2;PMS_P1;PMS_P2;Temp;Humidity;BMP_temperature;BMP_pressure;BME280_temperature;BME280_humidity;BME280_pressure;Samples;Min_cycle;Max_cycle;Signal;HPM_P1;HPM_P2
2024/01/04 00:01:43;;;;;;;8.10;1.13;;;;;;;7.93;100.00;99014.56;10352762;28;20048;-60
2024/01/04 00:07:05;;;;;;;4.78;0.80;;;;;;;7.93;100.00;99022.28;10343516;28;20092;-60
2024/01/04 00:12:26;;;;;;;7.25;0.80;;;;;;;7.87;100.00;99032.06;10346324;28;20104;-60
2024/01/04 00:17:48;;;;;;;3.75;1.00;;;;;;;7.81;100.00;99063.25;10355415;28;20490;-61
2024/01/04 00:23:10;;;;;;;4.65;0.77;;;;;;;7.79;100.00;99068.47;10347831;28;20046;-60
2024/01/04 00:28:31;;;;;;;5.28;0.70;;;;;;;7.65;100.00;99070.00;10337656;28;20584;-60
2024/01/04 00:33:53;;;;;;;4.97;0.70;;;;;;;7.54;100.00;99078.25;10336300;28;20053;-61
2024/01/04 00:39:15;;;;;;;2.38;0.57;;;;;;;7.38;100.00;99091.88;10345345;28;20135;-60
2024/01/04 00:44:37;;;;;;;6.10;0.90;;;;;;;7.29;100.00;99100.81;10352404;28;20141;-60
2024/01/04 00:49:59;;;;;;;3.83;0.90;;;;;;;7.19;100.00;99114.16;10329248;28;20049;-60
2024/01/04 00:55:20;;;;;;;3.58;0.82;;;;;;;7.17;100.00;99133.97;10341408;28;20057;-60
2024/01/04 01:00:43;;;;;;;2.92;0.80;;;;;;;7.12;100.00;99129.03;10345533;28;20498;-61
2024/01/04 01:06:10;;;;;;;5.55;0.90;;;;;;;6.99;100.00;99141.59;10347280;28;20085;-60
2024/01/04 01:11:32;;;;;;;4.35;1.00;;;;;;;7.01;100.00;99144.09;10357156;28;20080;-60
2024/01/04 01:16:54;;;;;;;4.05;0.65;;;;;;;6.92;100.00;99153.00;10343054;28;20045;-60
2024/01/04 01:22:15;;;;;;;1.75;0.50;;;;;;;6.93;100.00;99164.97;10340054;28;20471;-61
2024/01/04 01:27:37;;;;;;;3.13;0.60;;;;;;;6.92;100.00;99170.19;10351200;28;20137;-60
2024/01/04 01:32:59;;;;;;;2.92;0.57;;;;;;;6.93;99.76;99192.41;10348882;28;20143;-60
2024/01/04 01:38:23;;;;;;;2.78;0.68;;;;;;;6.89;99.29;99191.72;10357811;28;20050;-60
2024/01/04 01:43:44;;;;;;;1.33;0.50;;;;;;;6.86;98.12;99204.69;10355076;28;20077;-60
2024/01/04 01:49:06;;;;;;;2.20;0.70;;;;;;;6.80;97.45;99222.94;10356968;28;20251;-62
2024/01/04 01:54:28;;;;;;;7.15;0.50;;;;;;;6.82;96.42;99231.44;10357590;28;20085;-61
2024/01/04 01:59:50;;;;;;;3.20;0.73;;;;;;;6.79;95.77;99230.72;10353423;28;20041;-61
2024/01/04 02:05:12;;;;;;;4.85;0.70;;;;;;;6.75;95.34;99235.16;10354267;28;20053;-61
2024/01/04 02:10:33;;;;;;;4.13;0.63;;;;;;;6.76;95.11;99247.09;10338696;28;20054;-61
2024/01/04 02:15:55;;;;;;;2.47;0.45;;;;;;;6.73;95.19;99259.22;10345318;28;20129;-62
2024/01/04 02:21:16;;;;;;;2.20;0.50;;;;;;;6.67;95.95;99270.59;10373476;28;20044;-60
2024/01/04 02:26:38;;;;;;;2.53;0.60;;;;;;;6.65;95.59;99289.50;10355286;28;20064;-60
2024/01/04 02:32:00;;;;;;;4.20;0.60;;;;;;;6.51;96.24;99292.63;10345846;28;20042;-60
2024/01/04 02:37:24;;;;;;;1.00;0.50;;;;;;;6.43;96.17;99310.06;10348267;28;20054;-61
2024/01/04 02:42:45;;;;;;;6.30;0.65;;;;;;;6.32;95.21;99312.19;10354461;28;20042;-60
2024/01/04 02:48:07;;;;;;;3.65;0.60;;;;;;;6.31;96.26;99331.09;10368070;28;20199;-60
2024/01/04 02:53:29;;;;;;;2.17;0.50;;;;;;;6.26;95.18;99345.00;10354662;28;20062;-60
2024/01/04 02:58:50;;;;;;;4.47;0.68;;;;;;;6.25;95.00;99356.13;10356004;28;20049;-60
2024/01/04 03:04:12;;;;;;;0.50;0.25;;;;;;;6.19;94.80;99362.34;10350591;28;20128;-60
2024/01/04 03:09:34;;;;;;;1.40;0.50;;;;;;;6.12;95.88;99366.00;10351008;28;20069;-60
2024/01/04 03:14:57;;;;;;;1.90;0.50;;;;;;;6.08;97.77;99395.25;10350874;28;20052;-60
2024/01/04 03:20:19;;;;;;;3.03;0.70;;;;;;;6.03;97.09;99403.13;10348228;28;20054;-60
2024/01/04 03:25:40;;;;;;;2.30;0.50;;;;;;;6.06;98.55;99417.59;10343554;28;20050;-60
2024/01/04 03:31:02;;;;;;;2.55;0.60;;;;;;;6.02;99.26;99416.84;10338174;28;20061;-61
2024/01/04 03:36:24;;;;;;;3.45;0.50;;;;;;;6.01;99.61;99424.59;10348763;28;20049;-60
2024/01/04 03:41:45;;;;;;;1.63;0.50;;;;;;;6.02;99.46;99431.44;10344532;28;20046;-61
2024/01/04 03:47:07;;;;;;;1.90;0.50;;;;;;;5.97;99.02;99443.56;10358016;28;20434;-60
2024/01/04 03:52:29;;;;;;;2.10;0.30;;;;;;;5.92;100.00;99455.72;10356671;28;20045;-60
2024/01/04 03:57:51;;;;;;;3.35;0.55;;;;;;;5.89;100.00;99471.22;10331042;28;20086;-60
2024/01/04 04:03:17;;;;;;;2.25;0.30;;;;;;;5.87;100.00;99488.41;10351977;28;20048;-61
2024/01/04 04:08:39;;;;;;;3.13;0.52;;;;;;;5.81;100.00;99498.84;10345690;28;20053;-60
2024/01/04 04:14:01;;;;;;;2.15;0.25;;;;;;;5.71;100.00;99502.59;10344039;28;20053;-60
2024/01/04 04:19:22;;;;;;;2.28;0.40;;;;;;;5.66;100.00;99519.88;10352067;28;20394;-60
2024/01/04 04:24:44;;;;;;;1.08;0.38;;;;;;;5.65;100.00;99529.28;10359563;28;20049;-61
2024/01/04 04:30:06;;;;;;;2.38;0.50;;;;;;;5.60;100.00;99540.56;10361228;28;20084;-60
2024/01/04 04:35:28;;;;;;;0.57;0.30;;;;;;;5.59;100.00;99538.88;10342303;28;20053;-60
2024/01/04 04:40:50;;;;;;;3.13;0.60;;;;;;;5.57;100.00;99556.03;10347534;28;20475;-60
2024/01/04 04:46:12;;;;;;;4.32;0.50;;;;;;;5.50;100.00;99568.22;10354003;28;20474;-60
2024/01/04 04:51:34;;;;;;;3.85;0.70;;;;;;;5.43;100.00;99573.59;10341783;28;20492;-60
2024/01/04 04:56:56;;;;;;;2.20;0.52;;;;;;;5.47;100.00;99598.25;10354658;28;20757;-60
2024/01/04 05:02:18;;;;;;;1.85;0.70;;;;;;;5.44;99.67;99616.31;10353014;28;20499;-60
2024/01/04 05:07:40;;;;;;;3.45;0.77;;;;;;;5.43;100.00;99620.59;10358423;28;20422;-60
2024/01/04 05:13:02;;;;;;;3.08;0.70;;;;;;;5.45;100.00;99641.91;10352580;28;20125;-60
2024/01/04 05:18:24;;;;;;;3.42;0.70;;;;;;;5.31;100.00;99656.00;10350550;28;20562;-61
2024/01/04 05:23:46;;;;;;;3.15;0.80;;;;;;;5.25;100.00;99663.88;10354389;28;20579;-60
2024/01/04 05:29:09;;;;;;;2.75;0.57;;;;;;;5.28;100.00;99674.03;10356003;28;20038;-60
2024/01/04 05:34:32;;;;;;;1.20;0.50;;;;;;;5.24;100.00;99686.09;10341601;28;20144;-61
2024/01/04 05:39:54;;;;;;;0.88;0.50;;;;;;;5.15;100.00;99700.91;10362623;28;20101;-60
2024/01/04 05:45:19;;;;;;;1.08;0.70;;;;;;;5.11;100.00;99706.09;10351068;28;20045;-60
2024/01/04 05:50:40;;;;;;;3.40;0.77;;;;;;;5.10;100.00;99714.69;10344530;28;20054;-60
2024/01/04 05:56:03;;;;;;;4.07;0.90;;;;;;;5.04;100.00;99730.22;10351786;28;20101;-60
2024/01/04 06:01:25;;;;;;;2.13;0.70;;;;;;;5.05;100.00;99746.44;10353440;28;20054;-61
2024/01/04 06:06:47;;;;;;;3.25;0.65;;;;;;;5.05;100.00;99757.50;10352508;28;20041;-60
2024/01/04 06:12:08;;;;;;;3.67;0.70;;;;;;;5.01;99.75;99768.75;10371229;28;20077;-60
2024/01/04 06:17:30;;;;;;;2.70;0.60;;;;;;;5.02;100.00;99787.50;10353251;28;20466;-61
2024/01/04 06:22:53;;;;;;;3.50;0.90;;;;;;;5.02;100.00;99806.31;10346975;28;20070;-60
2024/01/04 06:28:14;;;;;;;1.40;0.77;;;;;;;5.02;100.00;99829.38;10355787;28;20457;-61
2024/01/04 06:33:36;;;;;;;3.40;0.70;;;;;;;4.95;99.54;99848.34;10361061;28;20052;-60
2024/01/04 06:38:58;;;;;;;3.00;0.80;;;;;;;4.86;98.77;99858.81;10349324;28;20109;-61
2024/01/04 06:44:20;;;;;;;5.10;0.75;;;;;;;4.83;98.81;99873.41;10349865;28;20129;-60
2024/01/04 06:49:50;;;;;;;3.25;0.68;;;;;;;4.75;97.48;99883.81;10355205;28;20130;-60
2024/01/04 06:55:18;;;;;;;3.38;0.90;;;;;;;4.73;98.03;99897.53;10357754;28;20049;-61
2024/01/04 07:00:40;;;;;;;4.65;0.90;;;;;;;4.78;98.92;99911.94;10333446;28;20539;-61
2024/01/04 07:06:02;;;;;;;2.47;0.70;;;;;;;4.72;98.19;99926.59;10346126;28;21141;-61
2024/01/04 07:11:24;;;;;;;4.28;0.95;;;;;;;4.71;97.47;99927.47;10353916;28;20050;-60
2024/01/04 07:16:46;;;;;;;4.80;1.00;;;;;;;4.71;98.21;99936.00;10349692;28;20045;-60
2024/01/04 07:22:10;;;;;;;6.50;0.90;;;;;;;4.79;97.95;99939.25;10348654;28;20589;-60
2024/01/04 07:27:31;;;;;;;6.93;1.23;;;;;;;4.79;98.12;99949.50;10354436;28;20073;-60
2024/01/04 07:32:53;;;;;;;2.08;0.80;;;;;;;4.81;98.04;99955.44;10344160;28;20042;-61
2024/01/04 07:38:15;;;;;;;3.42;0.70;;;;;;;4.69;96.55;99973.63;10348658;28;20089;-60
2024/01/04 07:43:36;;;;;;;3.35;0.70;;;;;;;4.71;97.87;99984.69;10353725;28;20065;-60
2024/01/04 07:48:58;;;;;;;9.57;1.05;;;;;;;4.59;96.69;99989.19;10351173;28;20058;-60
2024/01/04 07:54:22;;;;;;;5.20;1.02;;;;;;;4.58;97.96;100001.16;10336598;28;20045;-60
2024/01/04 07:59:44;;;;;;;4.68;1.00;;;;;;;4.56;96.36;100005.47;10356883;28;20072;-60
2024/01/04 08:05:06;;;;;;;4.70;1.20;;;;;;;4.58;96.92;100019.09;10346501;28;20050;-60
2024/01/04 08:10:30;;;;;;;3.28;0.90;;;;;;;4.60;97.60;100030.16;10352510;28;20038;-60
2024/01/04 08:15:52;;;;;;;5.10;1.10;;;;;;;4.56;98.15;100036.19;10343432;28;20050;-61
2024/01/04 08:21:13;;;;;;;1.63;0.63;;;;;;;4.54;97.50;100050.75;10350335;28;20399;-61
2024/01/04 08:26:41;;;;;;;3.45;1.10;;;;;;;4.49;97.11;100062.81;10349790;28;20053;-60
2024/01/04 08:32:03;;;;;;;2.70;0.80;;;;;;;4.56;98.79;100073.81;10351383;28;20049;-60
2024/01/04 08:37:25;;;;;;;2.88;0.95;;;;;;;4.52;96.95;100083.25;10345525;28;20049;-60
2024/01/04 08:42:46;;;;;;;3.42;1.25;;;;;;;4.47;97.26;100079.91;10342194;28;20046;-61
2024/01/04 08:48:08;;;;;;;4.65;1.00;;;;;;;4.49;96.82;100093.53;10351434;28;20050;-61
2024/01/04 08:53:30;;;;;;;2.50;0.88;;;;;;;4.49;97.39;100103.78;10347618;28;20105;-60
2024/01/04 08:58:52;;;;;;;1.83;0.90;;;;;;;4.47;96.93;100109.81;10357960;28;20087;-61
2024/01/04 09:04:13;;;;;;;3.03;0.85;;;;;;;4.36;96.32;100127.91;10358687;28;20173;-60
2024/01/04 09:09:39;;;;;;;5.40;1.05;;;;;;;4.37;97.56;100139.84;10341268;28;20113;-60
2024/01/04 09:15:05;;;;;;;1.65;0.90;;;;;;;4.38;97.76;100149.22;10348715;28;20053;-61
2024/01/04 09:20:28;;;;;;;2.70;1.10;;;;;;;4.42;97.59;100167.94;10347625;28;20050;-60
2024/01/04 09:25:49;;;;;;;1.55;0.82;;;;;;;4.37;96.03;100175.72;10347954;28;20098;-60
2024/01/04 09:31:11;;;;;;;3.00;1.02;;;;;;;4.48;97.32;100188.34;10349056;28;20046;-60
2024/01/04 09:36:33;;;;;;;4.10;1.05;;;;;;;4.46;96.08;100201.16;10343679;28;20043;-60
2024/01/04 09:41:56;;;;;;;5.20;1.02;;;;;;;4.39;95.97;100206.41;10347859;28;20114;-62
2024/01/04 09:47:22;;;;;;;3.65;1.30;;;;;;;4.43;95.94;100226.81;10334514;28;20376;-61
2024/01/04 09:52:46;;;;;;;;;;;;;;;4.38;95.62;100232.88;10358872;28;20050;-60
2024/01/04 09:58:11;;;;;;;2.40;0.90;;;;;;;4.40;96.47;100233.69;10356882;28;19952;-60
2024/01/04 10:03:33;;;;;;;5.72;1.08;;;;;;;4.42;94.16;100255.00;10367694;28;20498;-59
2024/01/04 10:09:14;;;;;;;4.78;1.17;;;;;;;4.48;96.30;100255.78;10365050;28;20049;-59
2024/01/04 10:14:37;;;;;;;3.70;1.00;;;;;;;4.53;94.56;100273.63;10362953;28;20045;-59
2024/01/04 10:19:58;;;;;;;4.40;1.00;;;;;;;4.50;94.13;100269.41;10349844;28;20050;-59
2024/01/04 10:25:22;;;;;;;2.85;1.08;;;;;;;4.56;95.28;100271.03;10356813;28;20480;-61
2024/01/04 10:30:43;;;;;;;2.72;1.00;;;;;;;4.60;94.29;100281.19;10344639;28;20066;-60
2024/01/04 10:36:09;;;;;;;2.55;1.10;;;;;;;4.68;96.70;100289.63;10348590;28;20046;-60
2024/01/04 10:41:32;;;;;;;;;;;;;;;4.71;96.71;100289.56;10350094;28;20056;-60
2024/01/04 10:46:56;;;;;;;4.68;1.02;;;;;;;4.71;95.64;100294.69;10357586;28;19921;-60
2024/01/04 10:52:21;;;;;;;5.72;1.00;;;;;;;4.67;92.62;100305.84;10361907;28;20046;-60
2024/01/04 10:57:49;;;;;;;3.72;1.05;;;;;;;4.60;92.94;100311.09;10361825;28;20136;-60
2024/01/04 11:03:11;;;;;;;1.77;0.90;;;;;;;4.65;93.76;100320.41;10357458;28;20049;-61
2024/01/04 11:08:35;;;;;;;3.38;1.00;;;;;;;4.66;90.70;100324.69;10364654;28;20048;-60
2024/01/04 11:13:57;;;;;;;4.40;1.08;;;;;;;4.66;90.90;100326.38;10359412;28;20046;-62
2024/01/04 11:19:59;;;;;;;5.35;1.00;;;;;;;4.61;89.48;100325.59;10359233;28;20132;-60
2024/01/04 11:25:52;;;;;;;3.40;0.82;;;;;;;4.59;91.14;100325.63;10346527;28;20097;-60
2024/01/04 11:31:14;;;;;;;1.98;0.90;;;;;;;4.66;92.10;100327.25;10351413;28;20512;-59
2024/01/04 11:36:35;;;;;;;2.72;0.70;;;;;;;4.67;90.44;100331.47;10352140;28;20046;-59
2024/01/04 11:41:57;;;;;;;5.28;0.80;;;;;;;4.67;90.99;100326.34;10350506;28;20525;-59
2024/01/04 11:47:28;;;;;;;4.57;0.90;;;;;;;4.73;91.75;100339.09;10354500;28;20487;-59
2024/01/04 11:52:51;;;;;;;4.72;0.95;;;;;;;4.78;90.34;100347.53;10346711;28;20435;-59
2024/01/04 11:58:24;;;;;;;3.95;0.90;;;;;;;4.77;89.49;100356.13;10363149;28;20104;-59
2024/01/04 12:03:46;;;;;;;4.78;1.05;;;;;;;4.76;89.66;100354.41;10350821;28;20042;-59
2024/01/04 12:09:09;;;;;;;2.25;0.88;;;;;;;4.73;90.52;100362.16;10343862;28;20128;-61
2024/01/04 12:14:37;;;;;;;3.00;0.90;;;;;;;4.79;92.25;100361.22;10363428;28;20038;-60
2024/01/04 12:19:58;;;;;;;7.93;1.25;;;;;;;4.80;92.37;100356.06;10374738;28;20145;-59
2024/01/04 12:25:20;;;;;;;3.40;1.08;;;;;;;4.77;91.61;100363.81;10345774;28;20742;-60
2024/01/04 12:30:46;;;;;;;3.15;0.98;;;;;;;4.86;92.72;100370.50;10347375;28;20050;-60
2024/01/04 12:36:09;;;;;;;5.32;1.20;;;;;;;4.87;90.14;100382.47;10341231;28;20057;-59
2024/01/04 12:41:31;;;;;;;3.58;1.13;;;;;;;4.93;91.63;100379.78;10341458;28;20973;-59
2024/01/04 12:47:03;;;;;;;1.63;1.08;;;;;;;4.98;91.68;100372.91;10359175;28;20038;-59
2024/01/04 12:52:25;;;;;;;1.65;0.73;;;;;;;5.06;90.93;100383.88;10353816;28;20041;-61
2024/01/04 12:57:47;;;;;;;2.25;0.90;;;;;;;5.12;90.12;100373.53;10351138;28;20113;-61
2024/01/04 13:03:09;;;;;;;3.92;0.75;;;;;;;5.08;87.01;100362.47;10334509;28;20061;-60
2024/01/04 13:08:30;;;;;;;3.58;0.93;;;;;;;5.08;88.18;100372.75;10354265;28;20049;-60
2024/01/04 13:13:52;;;;;;;1.70;0.90;;;;;;;5.15;89.87;100378.59;10350229;28;20132;-61
2024/01/04 13:19:15;;;;;;;3.17;1.00;;;;;;;5.18;90.87;100377.72;10342651;28;20082;-61
2024/01/04 13:24:37;;;;;;;4.70;1.20;;;;;;;5.17;87.50;100388.84;10346947;28;20053;-59
2024/01/04 13:29:58;;;;;;;7.25;0.85;;;;;;;5.13;87.64;100400.03;10353624;28;20054;-59
2024/01/04 13:35:20;;;;;;;2.20;1.15;;;;;;;5.10;89.02;100401.78;10350678;28;20039;-60
2024/01/04 13:40:42;;;;;;;4.53;1.00;;;;;;;5.09;90.62;100404.38;10360515;28;20406;-59
2024/01/04 13:46:04;;;;;;;3.42;1.30;;;;;;;5.04;91.13;100395.88;10352881;28;20082;-59
2024/01/04 13:51:25;;;;;;;2.10;0.98;;;;;;;5.01;90.23;100407.03;10352982;28;20084;-59
2024/01/04 13:56:47;;;;;;;4.70;1.50;;;;;;;4.99;92.47;100398.50;10351791;28;20045;-60
2024/01/04 14:02:09;;;;;;;5.22;1.50;;;;;;;4.96;93.15;100419.03;10339775;28;20061;-59
2024/01/04 14:07:31;;;;;;;1.65;1.20;;;;;;;4.96;94.18;100439.56;10357025;28;20046;-60
2024/01/04 14:12:52;;;;;;;2.28;1.15;;;;;;;4.94;93.57;100446.41;10364923;28;20167;-60
2024/01/04 14:18:14;;;;;;;4.50;1.30;;;;;;;4.93;94.13;100459.25;10362154;28;20145;-62
2024/01/04 14:23:36;;;;;;;2.80;1.13;;;;;;;4.91;92.08;100469.53;10355556;28;20050;-59
2024/01/04 14:28:57;;;;;;;6.18;1.63;;;;;;;4.90;92.86;100479.81;10354732;28;20058;-59
2024/01/04 14:34:19;;;;;;;7.00;1.58;;;;;;;4.89;95.04;100481.53;10358542;28;20034;-59
2024/01/04 14:39:48;;;;;;;3.17;1.40;;;;;;;4.87;94.94;100485.81;10366639;28;20050;-59
2024/01/04 14:45:19;;;;;;;1.98;1.20;;;;;;;4.83;95.04;100497.00;10348241;28;20062;-59
2024/01/04 14:50:41;;;;;;;5.70;1.27;;;;;;;4.80;94.99;100512.38;10369727;28;20101;-60
2024/01/04 14:56:03;;;;;;;6.63;1.20;;;;;;;4.78;95.84;100518.41;10357950;28;20038;-59
2024/01/04 15:01:25;;;;;;;4.20;1.35;;;;;;;4.74;94.71;100509.88;10341536;28;20109;-61
2024/01/04 15:06:47;;;;;;;5.07;1.65;;;;;;;4.73;96.28;100504.78;10359791;28;20125;-59
2024/01/04 15:12:09;;;;;;;3.67;1.60;;;;;;;4.70;97.19;100508.25;10343659;28;20073;-60
2024/01/04 15:17:31;;;;;;;6.53;1.50;;;;;;;4.61;96.13;100515.19;10354525;28;20053;-60
2024/01/04 15:22:52;;;;;;;3.35;1.58;;;;;;;4.57;96.27;100527.19;10346878;28;21327;-60
2024/01/04 15:28:14;;;;;;;1.70;1.13;;;;;;;4.54;96.38;100527.19;10346316;28;20149;-59
2024/01/04 15:33:35;;;;;;;5.53;1.63;;;;;;;4.52;96.73;100528.97;10348937;28;20081;-60
2024/01/04 15:38:57;;;;;;;4.85;1.38;;;;;;;4.48;96.30;100532.41;10347596;28;20082;-60
2024/01/04 15:44:20;;;;;;;6.95;1.63;;;;;;;4.47;96.62;100540.94;10346647;28;20102;-59
2024/01/04 15:49:42;;;;;;;5.70;1.40;;;;;;;4.44;95.89;100540.97;10348257;28;20470;-59
2024/01/04 15:55:04;;;;;;;2.53;1.65;;;;;;;4.41;96.09;100560.66;10349802;28;20040;-60
2024/01/04 16:00:26;;;;;;;4.20;1.35;;;;;;;4.39;96.52;100547.00;10357538;28;20242;-59
2024/01/04 16:05:49;;;;;;;4.45;1.60;;;;;;;4.39;96.87;100547.88;10348100;28;20049;-59
2024/01/04 16:11:11;;;;;;;3.80;1.45;;;;;;;4.40;95.01;100549.56;10341899;28;20046;-60
2024/01/04 16:16:32;;;;;;;2.35;1.30;;;;;;;4.38;95.67;100556.41;10359580;28;20483;-59
2024/01/04 16:21:56;;;;;;;4.90;1.60;;;;;;;4.35;94.55;100548.75;10346642;28;20058;-60
2024/01/04 16:27:18;;;;;;;2.92;1.65;;;;;;;4.35;95.00;100545.34;10347292;28;20049;-60
2024/01/04 16:32:41;;;;;;;5.25;1.58;;;;;;;4.33;95.32;100547.91;10344450;28;20052;-59
2024/01/04 16:38:03;;;;;;;4.38;2.10;;;;;;;4.22;93.75;100536.94;10340204;28;20037;-59
2024/01/04 16:43:26;;;;;;;4.38;2.00;;;;;;;4.20;95.18;100550.59;10345136;28;20055;-60
2024/01/04 16:48:47;;;;;;;4.25;2.28;;;;;;;4.13;95.23;100565.16;10337635;28;20145;-59
2024/01/04 16:54:10;;;;;;;4.60;2.10;;;;;;;4.07;95.86;100571.19;10348410;28;20037;-59
2024/01/04 16:59:31;;;;;;;3.92;2.50;;;;;;;3.99;95.48;100572.13;10350862;28;20137;-59
2024/01/04 17:04:53;;;;;;;3.95;2.40;;;;;;;3.93;94.90;100572.16;10354747;28;20062;-60
2024/01/04 17:10:15;;;;;;;3.05;2.15;;;;;;;3.88;94.88;100584.97;10368493;28;20058;-60
2024/01/04 17:15:38;;;;;;;6.13;2.88;;;;;;;3.88;96.20;100579.03;10347082;28;20057;-59
2024/01/04 17:21:00;;;;;;;5.82;2.83;;;;;;;3.88;95.72;100581.59;10345342;28;20133;-59
2024/01/04 17:26:22;;;;;;;7.57;3.53;;;;;;;3.84;96.59;100585.00;10345141;28;20494;-59
2024/01/04 17:31:44;;;;;;;5.97;3.50;;;;;;;3.82;96.43;100579.06;10335316;28;20050;-59
2024/01/04 17:37:06;;;;;;;7.68;3.50;;;;;;;3.74;95.53;100591.03;10351127;28;20046;-59
2024/01/04 17:42:28;;;;;;;8.93;4.65;;;;;;;3.71;97.31;100594.50;10337605;28;20057;-59
2024/01/04 17:47:50;;;;;;;6.30;3.10;;;;;;;3.66;96.85;100597.94;10328784;28;20082;-61
2024/01/04 17:53:12;;;;;;;7.25;3.47;;;;;;;3.63;96.72;100600.47;10333980;28;20064;-61
2024/01/04 17:58:34;;;;;;;4.32;3.17;;;;;;;3.58;97.40;100592.00;10344002;28;20042;-59
2024/01/04 18:03:56;;;;;;;7.47;3.55;;;;;;;3.57;96.79;100588.59;10344565;28;20050;-62
2024/01/04 18:09:18;;;;;;;6.35;3.15;;;;;;;3.56;97.24;100601.38;10358864;28;20049;-59
2024/01/04 18:14:39;;;;;;;7.28;3.75;;;;;;;3.60;97.85;100600.50;10349338;28;20038;-59
2024/01/04 18:20:01;;;;;;;5.97;3.60;;;;;;;3.57;97.46;100603.09;10341137;28;20137;-59
2024/01/04 18:25:23;;;;;;;6.45;3.53;;;;;;;3.57;96.96;100621.00;10350789;28;20038;-59
2024/01/04 18:30:44;;;;;;;5.85;3.45;;;;;;;3.62;98.12;100622.69;10349922;28;20551;-61
2024/01/04 18:36:07;;;;;;;4.70;3.10;;;;;;;3.61;96.83;100630.34;10341571;28;20106;-60
2024/01/04 18:41:29;;;;;;;10.07;3.10;;;;;;;3.63;97.16;100639.72;10349316;28;20417;-59
2024/01/04 18:46:51;;;;;;;4.28;3.08;;;;;;;3.65;97.54;100638.00;10348805;28;20049;-59
2024/01/04 18:52:12;;;;;;;3.65;2.95;;;;;;;3.63;96.46;100631.19;10351618;28;20057;-59
2024/01/04 18:57:34;;;;;;;5.47;2.70;;;;;;;3.61;95.78;100666.16;10353612;28;20073;-59
2024/01/04 19:02:56;;;;;;;4.15;3.03;;;;;;;3.60;95.62;100654.22;10350129;28;20057;-59
2024/01/04 19:08:18;;;;;;;5.45;2.83;;;;;;;3.60;95.80;100639.75;10359696;28;20141;-59
2024/01/04 19:13:40;;;;;;;5.05;2.70;;;;;;;3.66;96.63;100646.53;10344922;28;20048;-59
2024/01/04 19:19:03;;;;;;;6.10;3.20;;;;;;;3.65;94.68;100661.03;10356207;28;20042;-59
2024/01/04 19:24:25;;;;;;;5.85;3.50;;;;;;;3.67;94.97;100656.75;10363229;28;20050;-59
2024/01/04 19:29:47;;;;;;;4.35;3.20;;;;;;;3.67;94.47;100645.66;10348245;28;20422;-59
2024/01/04 19:35:09;;;;;;;5.45;3.63;;;;;;;3.64;93.71;100640.56;10360002;28;20059;-59
2024/01/04 19:40:30;;;;;;;6.47;4.10;;;;;;;3.64;94.05;100646.53;10350145;28;20049;-59
2024/01/04 19:45:52;;;;;;;4.38;3.00;;;;;;;3.60;93.52;100649.97;10347541;28;20073;-59
2024/01/04 19:51:21;;;;;;;6.55;3.80;;;;;;;3.66;95.80;100638.84;10351784;28;20062;-60
2024/01/04 19:56:43;;;;;;;4.72;3.22;;;;;;;3.63;94.58;100638.84;10346624;28;20129;-59
2024/01/04 20:02:05;;;;;;;6.75;3.45;;;;;;;3.59;94.02;100637.19;10350853;28;20061;-61
2024/01/04 20:07:35;;;;;;;7.40;3.35;;;;;;;3.51;93.26;100644.03;10332712;28;20038;-62
2024/01/04 20:12:57;;;;;;;6.03;3.75;;;;;;;3.53;95.01;100655.13;10328791;28;20058;-61
2024/01/04 20:18:23;;;;;;;8.93;4.15;;;;;;;3.51;93.62;100664.50;10337088;28;20132;-60
2024/01/04 20:23:47;;;;;;;8.00;3.90;;;;;;;3.51;94.38;100664.50;10336483;28;20042;-59
2024/01/04 20:29:09;;;;;;;7.85;4.00;;;;;;;3.54;94.55;100659.38;10348658;28;20061;-59
2024/01/04 20:34:31;;;;;;;4.57;3.90;;;;;;;3.48;93.32;100660.25;10337679;28;20135;-59
2024/01/04 20:39:53;;;;;;;5.85;3.47;;;;;;;3.54;96.10;100660.22;10353609;28;20085;-61
2024/01/04 20:45:21;;;;;;;4.53;3.45;;;;;;;3.59;95.21;100673.00;10348981;28;20406;-60
2024/01/04 20:50:43;;;;;;;4.82;3.65;;;;;;;3.64;96.06;100666.16;10357984;28;20042;-60
2024/01/04 20:56:06;;;;;;;4.47;3.50;;;;;;;3.63;95.12;100659.31;10343292;28;20042;-59
2024/01/04 21:01:28;;;;;;;6.40;4.20;;;;;;;3.64;95.34;100653.38;10348692;28;20124;-59
2024/01/04 21:06:49;;;;;;;9.55;3.90;;;;;;;3.64;94.25;100655.91;10355386;28;20050;-61
2024/01/04 21:12:12;;;;;;;6.53;3.80;;;;;;;3.63;95.12;100649.09;10343374;28;20054;-60
2024/01/04 21:17:34;;;;;;;12.05;4.13;;;;;;;3.63;95.48;100649.09;10339546;28;20054;-59
2024/01/04 21:22:56;;;;;;;5.80;4.07;;;;;;;3.65;95.03;100626.91;10342006;28;20404;-62
2024/01/04 21:28:17;;;;;;;6.57;4.05;;;;;;;3.69;96.02;100637.13;10340156;28;20042;-59
2024/01/04 21:33:39;;;;;;;8.10;4.38;;;;;;;3.66;94.86;100644.81;10334114;28;20064;-59
2024/01/04 21:39:01;;;;;;;12.00;4.40;;;;;;;3.64;95.30;100640.56;10351866;28;20041;-59
2024/01/04 21:44:22;;;;;;;8.07;4.75;;;;;;;3.62;95.04;100629.50;10339192;28;20097;-60
2024/01/04 21:49:45;;;;;;;6.28;4.63;;;;;;;3.63;95.53;100618.38;10352520;28;20046;-60
2024/01/04 21:55:06;;;;;;;8.95;5.13;;;;;;;3.64;96.29;100609.88;10354141;28;20120;-60
2024/01/04 22:00:28;;;;;;;5.80;4.72;;;;;;;3.63;95.23;100605.59;10349666;28;20502;-60
2024/01/04 22:05:50;;;;;;;8.75;5.40;;;;;;;3.55;94.94;100607.38;10352613;28;20042;-60
2024/01/04 22:11:11;;;;;;;9.73;5.60;;;;;;;3.49;96.23;100615.91;10347416;28;20046;-60
2024/01/04 22:16:35;;;;;;;7.85;5.22;;;;;;;3.51;98.29;100615.91;10348551;28;20554;-60
2024/01/04 22:21:58;;;;;;;10.43;5.35;;;;;;;3.50;97.81;100609.94;10360583;28;20046;-59
2024/01/04 22:27:20;;;;;;;8.18;5.10;;;;;;;3.50;96.97;100601.44;10358541;28;20058;-59
2024/01/04 22:32:42;;;;;;;7.85;5.40;;;;;;;3.49;97.60;100605.69;10345708;28;20506;-59
2024/01/04 22:38:04;;;;;;;8.32;4.70;;;;;;;3.48;96.59;100608.25;10353671;28;20046;-60
2024/01/04 22:43:26;;;;;;;7.45;5.25;;;;;;;3.48;97.31;100593.75;10355843;28;20054;-59
2024/01/04 22:48:47;;;;;;;9.20;5.15;;;;;;;3.50;96.96;100592.03;10342156;28;20419;-60
2024/01/04 22:54:10;;;;;;;8.27;5.22;;;;;;;3.54;97.18;100585.19;10353032;28;20490;-60
2024/01/04 22:59:31;;;;;;;8.43;5.50;;;;;;;3.57;97.76;100577.53;10335553;28;20394;-59
2024/01/04 23:04:53;;;;;;;8.85;5.68;;;;;;;3.58;98.47;100571.53;10367538;28;20136;-59
2024/01/04 23:10:15;;;;;;;7.43;5.05;;;;;;;3.57;96.32;100562.19;10355256;28;20057;-60
2024/01/04 23:15:36;;;;;;;7.53;5.10;;;;;;;3.58;97.25;100553.63;10357621;28;20110;-60
2024/01/04 23:20:58;;;;;;;8.32;5.40;;;;;;;3.59;96.92;100555.34;10375048;28;20050;-60
2024/01/04 23:26:20;;;;;;;7.05;4.85;;;;;;;3.61;96.12;100558.72;10348017;28;20149;-59
2024/01/04 23:31:41;;;;;;;11.90;5.28;;;;;;;3.65;97.50;100555.28;10337664;28;20121;-60
2024/01/04 23:37:05;;;;;;;9.75;5.18;;;;;;;3.59;95.33;100551.06;10339862;28;20038;-60
2024/01/04 23:42:27;;;;;;;8.10;4.90;;;;;;;3.59;95.73;100548.50;10341148;28;20053;-60
2024/01/04 23:47:49;;;;;;;8.43;4.40;;;;;;;3.60;95.30;100541.69;10334019;28;20050;-61
2024/01/04 23:53:11;;;;;;;5.22;3.97;;;;;;;3.59;95.05;100529.78;10351422;28;20050;-60
2024/01/04 23:58:33;;;;;;;6.40;4.20;;;;;;;3.59;93.57;100532.31;10346522;28;20049;-60
